sensor_id;sensor_type;location;lat;lon;timestamp;pressure;altitude;pressure_sealevel;temperature;humidity
68169;BME280;54981;50.206;15.978;2022-07-29T00:00:39;98963.78;;;15.06;71.49
68169;BME280;54981;50.206;15.978;2022-07-29T00:03:04;98958.06;;;14.87;71.99
68169;BME280;54981;50.206;15.978;2022-07-29T00:05:30;98962.22;;;14.91;72.26
68169;BME280;54981;50.206;15.978;2022-07-29T00:07:55;98965.72;;;15.04;73.15
68169;BME280;54981;50.206;15.978;2022-07-29T00:10:20;98970.41;;;15.13;73.10
68169;BME280;54981;50.206;15.978;2022-07-29T00:12:46;98972.44;;;15.23;72.81
68169;BME280;54981;50.206;15.978;2022-07-29T00:15:11;98979.22;;;15.16;73.18
68169;BME280;54981;50.206;15.978;2022-07-29T00:17:37;98978.66;;;14.86;74.46
68169;BME280;54981;50.206;15.978;2022-07-29T00:20:03;98990.75;;;14.92;74.60
68169;BME280;54981;50.206;15.978;2022-07-29T00:22:28;98987.84;;;14.95;72.63
68169;BME280;54981;50.206;15.978;2022-07-29T00:24:54;98985.53;;;14.78;71.93
68169;BME280;54981;50.206;15.978;2022-07-29T00:27:19;98993.03;;;14.60;73.11
68169;BME280;54981;50.206;15.978;2022-07-29T00:29:45;98994.75;;;14.61;73.07
68169;BME280;54981;50.206;15.978;2022-07-29T00:32:10;98987.53;;;14.36;73.87
68169;BME280;54981;50.206;15.978;2022-07-29T00:34:35;98996.88;;;14.17;75.16
68169;BME280;54981;50.206;15.978;2022-07-29T00:37:19;98981.22;;;14.11;77.57
68169;BME280;54981;50.206;15.978;2022-07-29T00:39:45;98994.28;;;14.28;77.54
68169;BME280;54981;50.206;15.978;2022-07-29T00:42:10;98989.19;;;14.38;78.13
68169;BME280;54981;50.206;15.978;2022-07-29T00:44:40;98987.91;;;14.57;77.90
68169;BME280;54981;50.206;15.978;2022-07-29T00:47:07;98998.28;;;14.61;78.80
68169;BME280;54981;50.206;15.978;2022-07-29T00:49:33;98983.59;;;14.41;78.17
68169;BME280;54981;50.206;15.978;2022-07-29T00:52:01;98981.88;;;14.40;76.49
68169;BME280;54981;50.206;15.978;2022-07-29T00:54:27;98971.59;;;14.47;75.90
68169;BME280;54981;50.206;15.978;2022-07-29T00:56:55;98972.88;;;14.41;77.30
68169;BME280;54981;50.206;15.978;2022-07-29T00:59:21;98965.47;;;14.45;77.56
68169;BME280;54981;50.206;15.978;2022-07-29T01:01:46;98960.53;;;14.52;77.51
68169;BME280;54981;50.206;15.978;2022-07-29T01:04:12;98955.06;;;14.40;76.38
68169;BME280;54981;50.206;15.978;2022-07-29T01:06:37;98967.75;;;14.64;76.17
68169;BME280;54981;50.206;15.978;2022-07-29T01:09:03;98954.25;;;14.65;75.22
68169;BME280;54981;50.206;15.978;2022-07-29T01:11:28;98952.69;;;14.87;74.93
68169;BME280;54981;50.206;15.978;2022-07-29T01:13:54;98949.16;;;14.86;75.36
68169;BME280;54981;50.206;15.978;2022-07-29T01:16:32;98954.66;;;14.72;74.83
68169;BME280;54981;50.206;15.978;2022-07-29T01:21:53;98945.53;;;14.49;73.27
68169;BME280;54981;50.206;15.978;2022-07-29T01:24:48;98944.16;;;14.43;74.40
68169;BME280;54981;50.206;15.978;2022-07-29T01:30:03;98941.28;;;14.34;75.82
68169;BME280;54981;50.206;15.978;2022-07-29T01:32:30;98931.75;;;14.17;77.12
68169;BME280;54981;50.206;15.978;2022-07-29T01:35:33;98921.22;;;14.14;77.71
68169;BME280;54981;50.206;15.978;2022-07-29T01:38:08;98933.13;;;14.22;77.95
68169;BME280;54981;50.206;15.978;2022-07-29T01:40:43;98920.50;;;14.24;77.71
68169;BME280;54981;50.206;15.978;2022-07-29T01:43:12;98916.00;;;14.25;77.18
68169;BME280;54981;50.206;15.978;2022-07-29T01:45:50;98902.81;;;14.09;77.00
68169;BME280;54981;50.206;15.978;2022-07-29T01:48:21;98906.44;;;14.21;75.64
68169;BME280;54981;50.206;15.978;2022-07-29T01:50:50;98901.53;;;14.27;75.52
68169;BME280;54981;50.206;15.978;2022-07-29T01:53:34;98896.94;;;14.17;77.49
68169;BME280;54981;50.206;15.978;2022-07-29T01:56:00;98892.56;;;14.03;77.37
68169;BME280;54981;50.206;15.978;2022-07-29T01:58:28;98897.03;;;14.15;78.41
68169;BME280;54981;50.206;15.978;2022-07-29T02:00:56;98894.47;;;14.14;77.90
68169;BME280;54981;50.206;15.978;2022-07-29T02:03:23;98888.16;;;13.89;75.81
68169;BME280;54981;50.206;15.978;2022-07-29T02:05:49;98894.25;;;13.78;75.75
68169;BME280;54981;50.206;15.978;2022-07-29T02:08:16;98891.25;;;13.70;76.09
68169;BME280;54981;50.206;15.978;2022-07-29T02:10:44;98888.78;;;13.54;77.46
68169;BME280;54981;50.206;15.978;2022-07-29T02:13:11;98892.94;;;13.58;78.09
68169;BME280;54981;50.206;15.978;2022-07-29T02:15:38;98887.50;;;13.73;78.87
68169;BME280;54981;50.206;15.978;2022-07-29T02:18:11;98887.63;;;13.71;78.39
68169;BME280;54981;50.206;15.978;2022-07-29T02:20:38;98889.31;;;13.72;77.59
68169;BME280;54981;50.206;15.978;2022-07-29T02:23:07;98885.88;;;13.70;77.87
68169;BME280;54981;50.206;15.978;2022-07-29T02:25:34;98880.97;;;13.77;77.74
68169;BME280;54981;50.206;15.978;2022-07-29T02:28:02;98879.63;;;13.31;78.91
68169;BME280;54981;50.206;15.978;2022-07-29T02:30:28;98879.88;;;13.14;78.73
68169;BME280;54981;50.206;15.978;2022-07-29T02:32:56;98882.00;;;13.09;79.64
68169;BME280;54981;50.206;15.978;2022-07-29T02:35:22;98881.56;;;13.15;79.99
68169;BME280;54981;50.206;15.978;2022-07-29T02:37:50;98884.97;;;13.31;80.20
68169;BME280;54981;50.206;15.978;2022-07-29T02:40:37;98881.13;;;13.35;79.83
68169;BME280;54981;50.206;15.978;2022-07-29T02:43:05;98881.78;;;13.39;80.75
68169;BME280;54981;50.206;15.978;2022-07-29T02:45:32;98888.00;;;13.52;80.12
68169;BME280;54981;50.206;15.978;2022-07-29T02:48:01;98893.81;;;13.59;80.91
68169;BME280;54981;50.206;15.978;2022-07-29T02:50:33;98886.97;;;13.80;79.82
68169;BME280;54981;50.206;15.978;2022-07-29T02:53:13;98890.94;;;14.00;78.59
68169;BME280;54981;50.206;15.978;2022-07-29T02:55:46;98890.63;;;14.05;78.48
68169;BME280;54981;50.206;15.978;2022-07-29T02:58:32;98897.38;;;13.98;80.37
68169;BME280;54981;50.206;15.978;2022-07-29T03:01:02;98897.47;;;14.09;80.08
68169;BME280;54981;50.206;15.978;2022-07-29T03:03:36;98900.16;;;13.96;80.88
68169;BME280;54981;50.206;15.978;2022-07-29T03:06:03;98897.34;;;13.72;78.76
68169;BME280;54981;50.206;15.978;2022-07-29T03:08:31;98899.16;;;13.59;78.74
68169;BME280;54981;50.206;15.978;2022-07-29T03:10:57;98902.78;;;13.58;79.08
68169;BME280;54981;50.206;15.978;2022-07-29T03:13:23;98915.84;;;13.75;79.58
68169;BME280;54981;50.206;15.978;2022-07-29T03:15:50;98916.41;;;13.80;79.08
68169;BME280;54981;50.206;15.978;2022-07-29T03:18:15;98919.59;;;13.73;80.02
68169;BME280;54981;50.206;15.978;2022-07-29T03:20:41;98914.06;;;13.76;80.19
68169;BME280;54981;50.206;15.978;2022-07-29T03:23:08;98909.19;;;13.55;81.72
68169;BME280;54981;50.206;15.978;2022-07-29T03:25:34;98914.84;;;13.51;82.27
68169;BME280;54981;50.206;15.978;2022-07-29T03:27:59;98910.09;;;13.69;81.95
68169;BME280;54981;50.206;15.978;2022-07-29T03:30:24;98905.91;;;13.90;81.09
68169;BME280;54981;50.206;15.978;2022-07-29T03:32:51;98905.81;;;14.04;79.91
68169;BME280;54981;50.206;15.978;2022-07-29T03:35:17;98906.69;;;14.18;78.80
68169;BME280;54981;50.206;15.978;2022-07-29T03:37:43;98900.25;;;14.07;79.51
68169;BME280;54981;50.206;15.978;2022-07-29T03:40:10;98899.41;;;13.81;81.80
68169;BME280;54981;50.206;15.978;2022-07-29T03:42:38;98904.31;;;13.62;83.35
68169;BME280;54981;50.206;15.978;2022-07-29T03:45:10;98898.72;;;13.78;83.25
68169;BME280;54981;50.206;15.978;2022-07-29T03:47:42;98902.16;;;13.67;83.59
68169;BME280;54981;50.206;15.978;2022-07-29T03:50:12;98887.41;;;13.87;82.68
68169;BME280;54981;50.206;15.978;2022-07-29T03:52:40;98893.41;;;14.03;82.27
68169;BME280;54981;50.206;15.978;2022-07-29T03:55:06;98886.75;;;14.09;83.38
68169;BME280;54981;50.206;15.978;2022-07-29T03:57:32;98885.56;;;14.26;82.56
68169;BME280;54981;50.206;15.978;2022-07-29T03:59:59;98883.44;;;14.31;83.11
68169;BME280;54981;50.206;15.978;2022-07-29T04:02:26;98887.59;;;14.48;82.67
68169;BME280;54981;50.206;15.978;2022-07-29T04:04:52;98876.63;;;14.51;82.37
68169;BME280;54981;50.206;15.978;2022-07-29T04:07:17;98870.44;;;14.51;81.83
68169;BME280;54981;50.206;15.978;2022-07-29T04:09:43;98868.09;;;14.46;82.21
68169;BME280;54981;50.206;15.978;2022-07-29T04:12:09;98864.00;;;14.53;82.29
68169;BME280;54981;50.206;15.978;2022-07-29T04:14:35;98866.66;;;14.66;83.39
68169;BME280;54981;50.206;15.978;2022-07-29T04:17:01;98882.47;;;14.82;82.45
68169;BME280;54981;50.206;15.978;2022-07-29T04:19:27;98879.69;;;15.07;81.27
68169;BME280;54981;50.206;15.978;2022-07-29T04:21:52;98887.94;;;15.28;79.62
68169;BME280;54981;50.206;15.978;2022-07-29T04:24:18;98894.97;;;15.53;79.05
68169;BME280;54981;50.206;15.978;2022-07-29T04:26:45;98894.34;;;15.74;77.92
68169;BME280;54981;50.206;15.978;2022-07-29T04:29:10;98893.41;;;15.86;77.76
68169;BME280;54981;50.206;15.978;2022-07-29T04:31:37;98889.03;;;15.96;76.83
68169;BME280;54981;50.206;15.978;2022-07-29T04:34:02;98887.56;;;16.04;75.80
68169;BME280;54981;50.206;15.978;2022-07-29T04:36:27;98894.41;;;15.96;75.43
68169;BME280;54981;50.206;15.978;2022-07-29T04:38:53;98893.28;;;15.99;74.58
68169;BME280;54981;50.206;15.978;2022-07-29T04:41:18;98895.03;;;16.00;76.09
68169;BME280;54981;50.206;15.978;2022-07-29T04:43:43;98889.16;;;16.06;76.26
68169;BME280;54981;50.206;15.978;2022-07-29T04:46:09;98891.72;;;16.08;76.04
68169;BME280;54981;50.206;15.978;2022-07-29T04:48:34;98890.16;;;16.16;74.82
68169;BME280;54981;50.206;15.978;2022-07-29T04:51:00;98898.56;;;16.23;73.86
68169;BME280;54981;50.206;15.978;2022-07-29T04:53:25;98900.56;;;16.21;74.41
68169;BME280;54981;50.206;15.978;2022-07-29T04:55:50;98905.91;;;16.32;74.28
68169;BME280;54981;50.206;15.978;2022-07-29T04:58:16;98902.13;;;16.35;73.99
68169;BME280;54981;50.206;15.978;2022-07-29T05:00:41;98912.50;;;16.39;73.16
68169;BME280;54981;50.206;15.978;2022-07-29T05:03:07;98905.56;;;16.48;72.68
68169;BME280;54981;50.206;15.978;2022-07-29T05:05:32;98912.88;;;16.57;71.66
68169;BME280;54981;50.206;15.978;2022-07-29T05:07:58;98906.88;;;16.65;71.63
68169;BME280;54981;50.206;15.978;2022-07-29T05:10:23;98906.25;;;16.73;71.81
68169;BME280;54981;50.206;15.978;2022-07-29T05:12:49;98909.44;;;16.67;72.67
68169;BME280;54981;50.206;15.978;2022-07-29T05:15:14;98904.94;;;16.67;72.12
68169;BME280;54981;50.206;15.978;2022-07-29T05:17:40;98910.44;;;16.66;72.10
68169;BME280;54981;50.206;15.978;2022-07-29T05:20:06;98913.13;;;16.77;72.11
68169;BME280;54981;50.206;15.978;2022-07-29T05:22:31;98926.69;;;16.87;72.01
68169;BME280;54981;50.206;15.978;2022-07-29T05:24:57;98920.06;;;17.02;71.17
68169;BME280;54981;50.206;15.978;2022-07-29T05:27:22;98927.97;;;17.15;70.52
68169;BME280;54981;50.206;15.978;2022-07-29T05:29:47;98923.66;;;17.23;72.60
68169;BME280;54981;50.206;15.978;2022-07-29T05:32:13;98925.31;;;17.47;68.75
68169;BME280;54981;50.206;15.978;2022-07-29T05:34:38;98925.50;;;17.55;68.89
68169;BME280;54981;50.206;15.978;2022-07-29T05:37:04;98928.09;;;17.78;68.50
68169;BME280;54981;50.206;15.978;2022-07-29T05:39:29;98928.00;;;18.00;68.56
68169;BME280;54981;50.206;15.978;2022-07-29T05:41:54;98917.63;;;17.96;68.94
68169;BME280;54981;50.206;15.978;2022-07-29T05:44:20;98913.00;;;18.07;69.14
68169;BME280;54981;50.206;15.978;2022-07-29T05:46:45;98908.81;;;18.15;66.50
68169;BME280;54981;50.206;15.978;2022-07-29T05:49:10;98905.63;;;18.30;66.11
68169;BME280;54981;50.206;15.978;2022-07-29T05:51:36;98904.69;;;18.41;65.88
68169;BME280;54981;50.206;15.978;2022-07-29T05:54:01;98903.75;;;18.52;64.08
68169;BME280;54981;50.206;15.978;2022-07-29T05:56:27;98899.06;;;18.64;64.77
68169;BME280;54981;50.206;15.978;2022-07-29T05:58:53;98903.44;;;18.76;64.40
68169;BME280;54981;50.206;15.978;2022-07-29T06:01:19;98910.69;;;18.85;63.47
68169;BME280;54981;50.206;15.978;2022-07-29T06:03:45;98907.88;;;18.97;62.92
68169;BME280;54981;50.206;15.978;2022-07-29T06:06:10;98911.72;;;19.04;64.74
68169;BME280;54981;50.206;15.978;2022-07-29T06:08:36;98906.88;;;18.98;64.20
68169;BME280;54981;50.206;15.978;2022-07-29T06:11:03;98919.28;;;19.10;63.60
68169;BME280;54981;50.206;15.978;2022-07-29T06:13:28;98908.91;;;19.15;64.17
68169;BME280;54981;50.206;15.978;2022-07-29T06:15:54;98918.59;;;19.27;63.33
68169;BME280;54981;50.206;15.978;2022-07-29T06:18:19;98908.09;;;19.34;63.09
68169;BME280;54981;50.206;15.978;2022-07-29T06:20:46;98908.34;;;19.41;64.27
68169;BME280;54981;50.206;15.978;2022-07-29T06:23:11;98906.66;;;19.40;62.54
68169;BME280;54981;50.206;15.978;2022-07-29T06:25:37;98917.03;;;19.54;61.41
68169;BME280;54981;50.206;15.978;2022-07-29T06:28:03;98915.19;;;19.64;60.98
68169;BME280;54981;50.206;15.978;2022-07-29T06:30:28;98913.94;;;19.88;57.91
68169;BME280;54981;50.206;15.978;2022-07-29T06:32:54;98915.16;;;20.03;57.68
68169;BME280;54981;50.206;15.978;2022-07-29T06:35:20;98913.44;;;20.21;57.26
68169;BME280;54981;50.206;15.978;2022-07-29T06:37:45;98910.84;;;20.30;56.87
68169;BME280;54981;50.206;15.978;2022-07-29T06:40:11;98918.06;;;20.39;57.18
68169;BME280;54981;50.206;15.978;2022-07-29T06:42:55;98914.75;;;20.55;56.31
68169;BME280;54981;50.206;15.978;2022-07-29T06:45:20;98922.41;;;20.69;56.38
68169;BME280;54981;50.206;15.978;2022-07-29T06:47:45;98911.84;;;20.76;55.20
68169;BME280;54981;50.206;15.978;2022-07-29T06:50:11;98919.50;;;20.80;55.47
68169;BME280;54981;50.206;15.978;2022-07-29T06:52:38;98914.34;;;20.87;55.61
68169;BME280;54981;50.206;15.978;2022-07-29T06:55:04;98908.06;;;20.87;56.11
68169;BME280;54981;50.206;15.978;2022-07-29T06:57:29;98916.59;;;20.92;57.76
68169;BME280;54981;50.206;15.978;2022-07-29T06:59:56;98916.53;;;21.01;56.69
68169;BME280;54981;50.206;15.978;2022-07-29T07:02:22;98913.31;;;21.16;55.95
68169;BME280;54981;50.206;15.978;2022-07-29T07:04:47;98909.91;;;21.14;55.59
68169;BME280;54981;50.206;15.978;2022-07-29T07:07:12;98915.50;;;21.30;57.11
68169;BME280;54981;50.206;15.978;2022-07-29T07:09:37;98904.84;;;21.46;54.84
68169;BME280;54981;50.206;15.978;2022-07-29T07:12:04;98912.59;;;21.59;54.92
68169;BME280;54981;50.206;15.978;2022-07-29T07:14:29;98911.16;;;21.91;54.03
68169;BME280;54981;50.206;15.978;2022-07-29T07:16:55;98910.00;;;21.94;53.71
68169;BME280;54981;50.206;15.978;2022-07-29T07:19:20;98908.09;;;22.12;53.77
68169;BME280;54981;50.206;15.978;2022-07-29T07:21:45;98892.88;;;22.19;53.63
68169;BME280;54981;50.206;15.978;2022-07-29T07:24:11;98900.84;;;22.39;52.86
68169;BME280;54981;50.206;15.978;2022-07-29T07:26:36;98900.66;;;22.66;52.78
68169;BME280;54981;50.206;15.978;2022-07-29T07:29:03;98888.47;;;22.79;51.83
68169;BME280;54981;50.206;15.978;2022-07-29T07:31:28;98899.13;;;22.64;52.15
68169;BME280;54981;50.206;15.978;2022-07-29T07:33:53;98891.88;;;22.81;50.75
68169;BME280;54981;50.206;15.978;2022-07-29T07:36:19;98892.84;;;23.06;51.15
68169;BME280;54981;50.206;15.978;2022-07-29T07:38:44;98887.94;;;23.09;50.66
68169;BME280;54981;50.206;15.978;2022-07-29T07:41:09;98891.50;;;23.18;50.19
68169;BME280;54981;50.206;15.978;2022-07-29T07:43:35;98892.19;;;23.20;51.47
68169;BME280;54981;50.206;15.978;2022-07-29T07:46:00;98898.47;;;23.12;50.84
68169;BME280;54981;50.206;15.978;2022-07-29T07:48:25;98895.22;;;23.09;50.14
68169;BME280;54981;50.206;15.978;2022-07-29T07:50:51;98899.16;;;23.23;50.17
68169;BME280;54981;50.206;15.978;2022-07-29T07:53:16;98892.88;;;23.22;50.51
68169;BME280;54981;50.206;15.978;2022-07-29T07:55:42;98890.38;;;23.37;49.66
68169;BME280;54981;50.206;15.978;2022-07-29T07:58:08;98891.22;;;23.54;49.34
68169;BME280;54981;50.206;15.978;2022-07-29T08:00:34;98890.78;;;23.75;49.36
68169;BME280;54981;50.206;15.978;2022-07-29T08:02:59;98892.13;;;23.87;48.35
68169;BME280;54981;50.206;15.978;2022-07-29T08:05:24;98885.31;;;24.08;48.11
68169;BME280;54981;50.206;15.978;2022-07-29T08:07:50;98887.97;;;24.24;48.18
68169;BME280;54981;50.206;15.978;2022-07-29T08:10:18;98889.03;;;24.23;48.29
68169;BME280;54981;50.206;15.978;2022-07-29T08:13:06;98889.16;;;24.38;47.34
68169;BME280;54981;50.206;15.978;2022-07-29T08:15:32;98894.53;;;24.62;47.37
68169;BME280;54981;50.206;15.978;2022-07-29T08:17:58;98897.41;;;24.69;47.13
68169;BME280;54981;50.206;15.978;2022-07-29T08:20:24;98899.50;;;24.59;46.37
68169;BME280;54981;50.206;15.978;2022-07-29T08:22:49;98894.38;;;24.64;46.87
68169;BME280;54981;50.206;15.978;2022-07-29T08:25:15;98897.41;;;24.69;45.46
68169;BME280;54981;50.206;15.978;2022-07-29T08:27:40;98893.22;;;24.58;48.11
68169;BME280;54981;50.206;15.978;2022-07-29T08:30:06;98902.41;;;24.57;47.04
68169;BME280;54981;50.206;15.978;2022-07-29T08:32:31;98897.75;;;24.74;44.86
68169;BME280;54981;50.206;15.978;2022-07-29T08:34:57;98882.91;;;24.77;44.67
68169;BME280;54981;50.206;15.978;2022-07-29T08:37:22;98886.31;;;24.79;44.68
68169;BME280;54981;50.206;15.978;2022-07-29T08:39:47;98881.94;;;24.70;44.44
68169;BME280;54981;50.206;15.978;2022-07-29T08:42:13;98890.28;;;24.68;45.58
68169;BME280;54981;50.206;15.978;2022-07-29T08:44:39;98892.97;;;24.76;45.00
68169;BME280;54981;50.206;15.978;2022-07-29T08:47:05;98888.22;;;24.70;45.13
68169;BME280;54981;50.206;15.978;2022-07-29T08:49:33;98896.38;;;24.70;44.76
68169;BME280;54981;50.206;15.978;2022-07-29T08:52:00;98892.66;;;24.71;44.55
68169;BME280;54981;50.206;15.978;2022-07-29T08:54:25;98896.94;;;24.65;45.37
68169;BME280;54981;50.206;15.978;2022-07-29T08:56:51;98894.75;;;24.61;44.95
68169;BME280;54981;50.206;15.978;2022-07-29T08:59:22;98887.91;;;24.65;45.02
68169;BME280;54981;50.206;15.978;2022-07-29T09:01:48;98889.56;;;24.82;45.72
68169;BME280;54981;50.206;15.978;2022-07-29T09:04:14;98888.81;;;24.88;46.65
68169;BME280;54981;50.206;15.978;2022-07-29T09:06:44;98893.53;;;25.03;44.98
68169;BME280;54981;50.206;15.978;2022-07-29T09:09:11;98902.50;;;24.72;48.53
68169;BME280;54981;50.206;15.978;2022-07-29T09:11:39;98887.63;;;24.91;45.58
68169;BME280;54981;50.206;15.978;2022-07-29T09:14:04;98892.53;;;24.48;47.63
68169;BME280;54981;50.206;15.978;2022-07-29T09:16:54;98903.81;;;24.12;47.34
68169;BME280;54981;50.206;15.978;2022-07-29T09:19:32;98895.31;;;24.32;48.01
68169;BME280;54981;50.206;15.978;2022-07-29T09:22:04;98903.47;;;24.07;48.62
68169;BME280;54981;50.206;15.978;2022-07-29T09:26:59;98893.13;;;24.11;48.31
68169;BME280;54981;50.206;15.978;2022-07-29T09:29:25;98894.81;;;24.20;48.50
68169;BME280;54981;50.206;15.978;2022-07-29T09:31:52;98892.78;;;24.14;48.37
68169;BME280;54981;50.206;15.978;2022-07-29T09:36:49;98886.16;;;24.08;47.44
68169;BME280;54981;50.206;15.978;2022-07-29T09:39:27;98888.69;;;24.18;48.15
68169;BME280;54981;50.206;15.978;2022-07-29T09:41:54;98890.03;;;24.22;49.72
68169;BME280;54981;50.206;15.978;2022-07-29T09:44:20;98887.97;;;24.24;47.96
68169;BME280;54981;50.206;15.978;2022-07-29T09:47:12;98883.84;;;24.61;46.59
68169;BME280;54981;50.206;15.978;2022-07-29T09:49:56;98871.88;;;24.70;47.56
68169;BME280;54981;50.206;15.978;2022-07-29T09:52:29;98867.78;;;24.74;47.14
68169;BME280;54981;50.206;15.978;2022-07-29T09:55:07;98862.03;;;24.69;46.82
68169;BME280;54981;50.206;15.978;2022-07-29T09:57:33;98872.78;;;25.02;45.58
68169;BME280;54981;50.206;15.978;2022-07-29T10:02:35;98868.69;;;24.98;47.06
68169;BME280;54981;50.206;15.978;2022-07-29T10:05:03;98865.66;;;24.93;47.89
68169;BME280;54981;50.206;15.978;2022-07-29T10:07:45;98862.88;;;25.01;46.00
68169;BME280;54981;50.206;15.978;2022-07-29T10:12:51;98863.81;;;25.47;45.33
68169;BME280;54981;50.206;15.978;2022-07-29T10:15:18;98861.25;;;25.46;46.49
68169;BME280;54981;50.206;15.978;2022-07-29T10:17:44;98859.22;;;25.48;47.36
68169;BME280;54981;50.206;15.978;2022-07-29T10:20:10;98855.06;;;25.29;46.88
68169;BME280;54981;50.206;15.978;2022-07-29T10:22:36;98855.69;;;25.39;45.41
68169;BME280;54981;50.206;15.978;2022-07-29T10:25:02;98861.50;;;25.59;45.63
68169;BME280;54981;50.206;15.978;2022-07-29T10:27:28;98855.81;;;25.46;48.00
68169;BME280;54981;50.206;15.978;2022-07-29T10:29:53;98853.69;;;25.56;46.04
68169;BME280;54981;50.206;15.978;2022-07-29T10:35:12;98850.72;;;25.89;45.43
68169;BME280;54981;50.206;15.978;2022-07-29T10:37:58;98853.63;;;26.02;45.62
68169;BME280;54981;50.206;15.978;2022-07-29T10:40:39;98854.03;;;25.76;48.03
68169;BME280;54981;50.206;15.978;2022-07-29T10:43:29;98850.03;;;25.87;48.63
68169;BME280;54981;50.206;15.978;2022-07-29T10:45:59;98853.63;;;25.64;49.07
68169;BME280;54981;50.206;15.978;2022-07-29T10:48:25;98855.78;;;25.92;48.41
68169;BME280;54981;50.206;15.978;2022-07-29T10:50:58;98847.34;;;26.02;47.44
68169;BME280;54981;50.206;15.978;2022-07-29T10:53:49;98855.25;;;26.26;46.49
68169;BME280;54981;50.206;15.978;2022-07-29T10:56:29;98851.31;;;26.29;46.94
68169;BME280;54981;50.206;15.978;2022-07-29T11:01:45;98855.91;;;26.28;48.43
68169;BME280;54981;50.206;15.978;2022-07-29T11:04:11;98850.72;;;26.04;48.35
68169;BME280;54981;50.206;15.978;2022-07-29T11:09:30;98855.69;;;25.62;47.86
68169;BME280;54981;50.206;15.978;2022-07-29T11:11:59;98856.34;;;25.64;47.34
68169;BME280;54981;50.206;15.978;2022-07-29T11:17:19;98853.94;;;26.07;47.79
68169;BME280;54981;50.206;15.978;2022-07-29T11:19:44;98855.47;;;26.40;45.29
68169;BME280;54981;50.206;15.978;2022-07-29T11:22:11;98846.28;;;26.55;45.59
68169;BME280;54981;50.206;15.978;2022-07-29T11:24:37;98849.66;;;26.72;44.72
68169;BME280;54981;50.206;15.978;2022-07-29T11:27:31;98844.81;;;26.74;44.27
68169;BME280;54981;50.206;15.978;2022-07-29T11:30:04;98855.56;;;26.76;44.40
68169;BME280;54981;50.206;15.978;2022-07-29T11:32:41;98841.28;;;26.95;44.18
68169;BME280;54981;50.206;15.978;2022-07-29T11:35:18;98859.03;;;26.85;45.46
68169;BME280;54981;50.206;15.978;2022-07-29T11:38:24;98846.56;;;26.97;45.34
68169;BME280;54981;50.206;15.978;2022-07-29T11:43:46;98852.94;;;27.19;45.98
68169;BME280;54981;50.206;15.978;2022-07-29T11:46:13;98848.41;;;27.26;45.47
68169;BME280;54981;50.206;15.978;2022-07-29T11:48:42;98849.16;;;27.20;45.01
68169;BME280;54981;50.206;15.978;2022-07-29T11:51:11;98846.72;;;27.25;45.30
68169;BME280;54981;50.206;15.978;2022-07-29T11:53:39;98840.72;;;27.36;44.33
68169;BME280;54981;50.206;15.978;2022-07-29T11:56:08;98845.50;;;27.28;45.14
68169;BME280;54981;50.206;15.978;2022-07-29T11:58:33;98845.22;;;27.08;45.86
68169;BME280;54981;50.206;15.978;2022-07-29T12:01:09;98843.41;;;27.15;45.59
68169;BME280;54981;50.206;15.978;2022-07-29T12:03:37;98846.59;;;27.33;44.54
68169;BME280;54981;50.206;15.978;2022-07-29T12:06:23;98841.78;;;26.99;44.96
68169;BME280;54981;50.206;15.978;2022-07-29T12:08:48;98842.91;;;26.90;45.32
68169;BME280;54981;50.206;15.978;2022-07-29T12:11:20;98845.69;;;27.11;44.45
68169;BME280;54981;50.206;15.978;2022-07-29T12:13:45;98835.31;;;27.22;44.85
68169;BME280;54981;50.206;15.978;2022-07-29T12:16:11;98839.44;;;27.17;45.90
68169;BME280;54981;50.206;15.978;2022-07-29T12:18:36;98835.00;;;27.31;44.52
68169;BME280;54981;50.206;15.978;2022-07-29T12:21:02;98831.44;;;27.16;44.64
68169;BME280;54981;50.206;15.978;2022-07-29T12:23:31;98839.22;;;26.97;44.77
68169;BME280;54981;50.206;15.978;2022-07-29T12:25:57;98835.78;;;27.10;44.59
68169;BME280;54981;50.206;15.978;2022-07-29T12:28:23;98831.91;;;26.83;47.07
68169;BME280;54981;50.206;15.978;2022-07-29T12:30:50;98831.56;;;27.08;44.75
68169;BME280;54981;50.206;15.978;2022-07-29T12:33:27;98833.63;;;27.21;45.02
68169;BME280;54981;50.206;15.978;2022-07-29T12:35:58;98831.34;;;27.24;44.51
68169;BME280;54981;50.206;15.978;2022-07-29T12:38:24;98826.38;;;27.34;44.55
68169;BME280;54981;50.206;15.978;2022-07-29T12:40:52;98829.44;;;27.25;45.38
68169;BME280;54981;50.206;15.978;2022-07-29T12:43:20;98819.56;;;27.45;44.08
68169;BME280;54981;50.206;15.978;2022-07-29T12:45:48;98824.91;;;27.32;44.45
68169;BME280;54981;50.206;15.978;2022-07-29T12:48:15;98818.09;;;27.06;46.46
68169;BME280;54981;50.206;15.978;2022-07-29T12:50:58;98813.81;;;26.52;47.44
68169;BME280;54981;50.206;15.978;2022-07-29T12:53:24;98815.69;;;26.82;46.18
68169;BME280;54981;50.206;15.978;2022-07-29T12:55:51;98815.16;;;27.08;45.94
68169;BME280;54981;50.206;15.978;2022-07-29T13:01:03;98820.66;;;26.93;47.99
68169;BME280;54981;50.206;15.978;2022-07-29T13:03:42;98824.28;;;27.15;47.25
68169;BME280;54981;50.206;15.978;2022-07-29T13:06:27;98818.59;;;26.95;45.07
68169;BME280;54981;50.206;15.978;2022-07-29T13:09:11;98814.72;;;26.68;46.07
68169;BME280;54981;50.206;15.978;2022-07-29T13:11:47;98813.66;;;26.39;46.12
68169;BME280;54981;50.206;15.978;2022-07-29T13:17:22;98810.56;;;26.57;46.86
68169;BME280;54981;50.206;15.978;2022-07-29T13:20:05;98813.56;;;26.62;47.48
68169;BME280;54981;50.206;15.978;2022-07-29T13:22:30;98811.69;;;26.63;46.60
68169;BME280;54981;50.206;15.978;2022-07-29T13:24:58;98809.34;;;26.60;46.81
68169;BME280;54981;50.206;15.978;2022-07-29T13:27:26;98809.34;;;26.60;47.90
68169;BME280;54981;50.206;15.978;2022-07-29T13:29:53;98806.81;;;26.58;46.82
68169;BME280;54981;50.206;15.978;2022-07-29T13:32:22;98798.59;;;26.43;47.12